sensor_id;sensor_type;location;lat;lon;timestamp;P1;durP1;ratioP1;P2;durP2;ratioP2
40601;SDS011;26310;50.278;19.032;2022-07-24T00:04:52;17.38;;;13.55;;
40601;SDS011;26310;50.278;19.032;2022-07-24T00:09:58;20.80;;;15.07;;
40601;SDS011;26310;50.278;19.032;2022-07-24T00:15:02;20.50;;;14.32;;
40601;SDS011;26310;50.278;19.032;2022-07-24T00:20:06;21.45;;;15.55;;
40601;SDS011;26310;50.278;19.032;2022-07-24T00:25:09;26.25;;;16.35;;
40601;SDS011;26310;50.278;19.032;2022-07-24T00:30:12;21.85;;;15.65;;
40601;SDS011;26310;50.278;19.032;2022-07-24T00:35:15;24.42;;;17.88;;
40601;SDS011;26310;50.278;19.032;2022-07-24T00:40:19;20.27;;;16.00;;
40601;SDS011;26310;50.278;19.032;2022-07-24T00:45:22;21.25;;;16.75;;
40601;SDS011;26310;50.278;19.032;2022-07-24T00:50:26;22.27;;;15.80;;
40601;SDS011;26310;50.278;19.032;2022-07-24T00:55:29;19.30;;;15.75;;
40601;SDS011;26310;50.278;19.032;2022-07-24T01:00:32;23.77;;;15.80;;
40601;SDS011;26310;50.278;19.032;2022-07-24T01:05:35;24.65;;;15.90;;
40601;SDS011;26310;50.278;19.032;2022-07-24T01:10:38;21.38;;;16.88;;
40601;SDS011;26310;50.278;19.032;2022-07-24T01:15:40;25.23;;;17.27;;
40601;SDS011;26310;50.278;19.032;2022-07-24T01:20:47;20.67;;;16.50;;
40601;SDS011;26310;50.278;19.032;2022-07-24T01:25:50;21.25;;;16.10;;
40601;SDS011;26310;50.278;19.032;2022-07-24T01:30:53;23.48;;;16.75;;
40601;SDS011;26310;50.278;19.032;2022-07-24T01:35:56;22.50;;;15.93;;
40601;SDS011;26310;50.278;19.032;2022-07-24T01:40:59;23.10;;;15.73;;
40601;SDS011;26310;50.278;19.032;2022-07-24T01:46:02;18.88;;;15.10;;
40601;SDS011;26310;50.278;19.032;2022-07-24T01:51:05;20.10;;;14.95;;
40601;SDS011;26310;50.278;19.032;2022-07-24T01:56:08;21.85;;;16.27;;
40601;SDS011;26310;50.278;19.032;2022-07-24T02:01:11;19.23;;;14.50;;
40601;SDS011;26310;50.278;19.032;2022-07-24T02:06:14;20.02;;;15.00;;
40601;SDS011;26310;50.278;19.032;2022-07-24T02:11:17;16.77;;;13.75;;
40601;SDS011;26310;50.278;19.032;2022-07-24T02:16:20;14.95;;;11.77;;
40601;SDS011;26310;50.278;19.032;2022-07-24T02:21:23;15.05;;;11.85;;
40601;SDS011;26310;50.278;19.032;2022-07-24T02:26:26;13.18;;;10.90;;
40601;SDS011;26310;50.278;19.032;2022-07-24T02:31:29;19.15;;;11.48;;
40601;SDS011;26310;50.278;19.032;2022-07-24T02:36:32;10.80;;;9.40;;
40601;SDS011;26310;50.278;19.032;2022-07-24T02:41:35;14.57;;;9.82;;
40601;SDS011;26310;50.278;19.032;2022-07-24T02:46:38;14.57;;;10.45;;
40601;SDS011;26310;50.278;19.032;2022-07-24T02:51:40;12.33;;;9.77;;
40601;SDS011;26310;50.278;19.032;2022-07-24T02:56:43;13.83;;;10.17;;
40601;SDS011;26310;50.278;19.032;2022-07-24T03:01:46;13.37;;;10.10;;
40601;SDS011;26310;50.278;19.032;2022-07-24T03:06:49;10.83;;;8.77;;
40601;SDS011;26310;50.278;19.032;2022-07-24T03:11:52;13.43;;;9.70;;
40601;SDS011;26310;50.278;19.032;2022-07-24T03:16:54;12.03;;;9.53;;
40601;SDS011;26310;50.278;19.032;2022-07-24T03:21:57;12.63;;;9.73;;
40601;SDS011;26310;50.278;19.032;2022-07-24T03:27:00;11.50;;;9.23;;
40601;SDS011;26310;50.278;19.032;2022-07-24T03:32:03;13.70;;;9.63;;
40601;SDS011;26310;50.278;19.032;2022-07-24T03:37:06;13.53;;;10.03;;
40601;SDS011;26310;50.278;19.032;2022-07-24T03:42:08;13.13;;;9.93;;
40601;SDS011;26310;50.278;19.032;2022-07-24T03:47:11;12.87;;;9.33;;
40601;SDS011;26310;50.278;19.032;2022-07-24T03:52:14;11.73;;;9.80;;
40601;SDS011;26310;50.278;19.032;2022-07-24T03:57:24;15.70;;;9.40;;
40601;SDS011;26310;50.278;19.032;2022-07-24T04:02:26;13.67;;;8.63;;
40601;SDS011;26310;50.278;19.032;2022-07-24T04:07:29;12.90;;;8.53;;
40601;SDS011;26310;50.278;19.032;2022-07-24T04:12:32;9.33;;;7.87;;
40601;SDS011;26310;50.278;19.032;2022-07-24T04:17:38;11.17;;;8.37;;
40601;SDS011;26310;50.278;19.032;2022-07-24T04:22:42;10.67;;;8.13;;
40601;SDS011;26310;50.278;19.032;2022-07-24T04:27:47;13.03;;;7.73;;
40601;SDS011;26310;50.278;19.032;2022-07-24T04:32:50;11.60;;;8.23;;
40601;SDS011;26310;50.278;19.032;2022-07-24T04:37:52;11.03;;;7.67;;
40601;SDS011;26310;50.278;19.032;2022-07-24T04:42:55;13.97;;;8.40;;
40601;SDS011;26310;50.278;19.032;2022-07-24T04:47:58;12.03;;;8.30;;
40601;SDS011;26310;50.278;19.032;2022-07-24T04:53:01;11.50;;;8.50;;
40601;SDS011;26310;50.278;19.032;2022-07-24T04:58:03;8.70;;;7.37;;
40601;SDS011;26310;50.278;19.032;2022-07-24T05:03:06;12.03;;;8.17;;
40601;SDS011;26310;50.278;19.032;2022-07-24T05:08:09;10.27;;;7.50;;
40601;SDS011;26310;50.278;19.032;2022-07-24T05:13:12;9.20;;;7.20;;
40601;SDS011;26310;50.278;19.032;2022-07-24T05:18:14;11.07;;;7.57;;
40601;SDS011;26310;50.278;19.032;2022-07-24T05:23:17;11.10;;;7.53;;
40601;SDS011;26310;50.278;19.032;2022-07-24T05:28:20;10.43;;;7.27;;
40601;SDS011;26310;50.278;19.032;2022-07-24T05:33:23;10.37;;;7.57;;
40601;SDS011;26310;50.278;19.032;2022-07-24T05:38:26;8.87;;;7.40;;
40601;SDS011;26310;50.278;19.032;2022-07-24T05:43:30;9.87;;;7.00;;
40601;SDS011;26310;50.278;19.032;2022-07-24T05:48:33;9.23;;;7.25;;
40601;SDS011;26310;50.278;19.032;2022-07-24T05:53:35;12.98;;;6.90;;
40601;SDS011;26310;50.278;19.032;2022-07-24T05:58:38;9.52;;;6.82;;
40601;SDS011;26310;50.278;19.032;2022-07-24T06:03:41;8.33;;;6.97;;
40601;SDS011;26310;50.278;19.032;2022-07-24T06:08:44;9.70;;;6.70;;
40601;SDS011;26310;50.278;19.032;2022-07-24T06:13:47;9.60;;;6.35;;
40601;SDS011;26310;50.278;19.032;2022-07-24T06:18:50;6.70;;;5.68;;
40601;SDS011;26310;50.278;19.032;2022-07-24T06:23:53;6.03;;;5.43;;
40601;SDS011;26310;50.278;19.032;2022-07-24T06:28:55;9.60;;;4.90;;
40601;SDS011;26310;50.278;19.032;2022-07-24T06:33:58;5.93;;;4.90;;
40601;SDS011;26310;50.278;19.032;2022-07-24T06:39:01;6.07;;;5.20;;
40601;SDS011;26310;50.278;19.032;2022-07-24T06:44:04;5.60;;;4.87;;
40601;SDS011;26310;50.278;19.032;2022-07-24T06:49:07;6.55;;;4.95;;
40601;SDS011;26310;50.278;19.032;2022-07-24T06:54:10;7.53;;;5.30;;
40601;SDS011;26310;50.278;19.032;2022-07-24T06:59:13;6.32;;;4.53;;
40601;SDS011;26310;50.278;19.032;2022-07-24T07:04:16;5.50;;;4.40;;
40601;SDS011;26310;50.278;19.032;2022-07-24T07:09:18;6.63;;;4.70;;
40601;SDS011;26310;50.278;19.032;2022-07-24T07:14:21;6.05;;;4.00;;
40601;SDS011;26310;50.278;19.032;2022-07-24T07:19:24;5.20;;;4.03;;
40601;SDS011;26310;50.278;19.032;2022-07-24T07:24:27;4.55;;;3.83;;
40601;SDS011;26310;50.278;19.032;2022-07-24T07:29:29;7.78;;;4.80;;
40601;SDS011;26310;50.278;19.032;2022-07-24T07:34:32;4.60;;;4.15;;
40601;SDS011;26310;50.278;19.032;2022-07-24T07:39:35;6.95;;;5.55;;
40601;SDS011;26310;50.278;19.032;2022-07-24T07:44:38;5.25;;;4.60;;
40601;SDS011;26310;50.278;19.032;2022-07-24T07:49:40;6.60;;;4.00;;
40601;SDS011;26310;50.278;19.032;2022-07-24T07:54:43;8.27;;;5.75;;
40601;SDS011;26310;50.278;19.032;2022-07-24T07:59:46;6.00;;;5.05;;
40601;SDS011;26310;50.278;19.032;2022-07-24T08:04:50;6.65;;;5.20;;
40601;SDS011;26310;50.278;19.032;2022-07-24T08:09:52;6.25;;;4.97;;
40601;SDS011;26310;50.278;19.032;2022-07-24T08:14:57;7.97;;;5.10;;
40601;SDS011;26310;50.278;19.032;2022-07-24T08:19:59;8.43;;;5.53;;
40601;SDS011;26310;50.278;19.032;2022-07-24T08:25:02;6.93;;;5.63;;
40601;SDS011;26310;50.278;19.032;2022-07-24T08:30:05;5.40;;;4.90;;
40601;SDS011;26310;50.278;19.032;2022-07-24T08:35:09;6.03;;;4.82;;
40601;SDS011;26310;50.278;19.032;2022-07-24T08:40:13;6.47;;;5.78;;
40601;SDS011;26310;50.278;19.032;2022-07-24T08:45:17;6.78;;;5.07;;
40601;SDS011;26310;50.278;19.032;2022-07-24T08:50:19;5.80;;;4.93;;
40601;SDS011;26310;50.278;19.032;2022-07-24T08:55:22;8.30;;;5.60;;
40601;SDS011;26310;50.278;19.032;2022-07-24T09:00:25;5.40;;;4.72;;
40601;SDS011;26310;50.278;19.032;2022-07-24T09:05:29;5.72;;;4.63;;
40601;SDS011;26310;50.278;19.032;2022-07-24T09:10:36;5.28;;;4.65;;
40601;SDS011;26310;50.278;19.032;2022-07-24T09:15:46;6.10;;;4.80;;
40601;SDS011;26310;50.278;19.032;2022-07-24T09:20:49;6.18;;;5.07;;
40601;SDS011;26310;50.278;19.032;2022-07-24T09:25:53;8.20;;;4.95;;
40601;SDS011;26310;50.278;19.032;2022-07-24T09:31:00;6.57;;;5.25;;
40601;SDS011;26310;50.278;19.032;2022-07-24T09:36:11;6.90;;;4.78;;
40601;SDS011;26310;50.278;19.032;2022-07-24T09:41:24;5.50;;;4.43;;
40601;SDS011;26310;50.278;19.032;2022-07-24T09:46:27;5.22;;;4.72;;
40601;SDS011;26310;50.278;19.032;2022-07-24T09:51:30;5.10;;;4.20;;
40601;SDS011;26310;50.278;19.032;2022-07-24T09:56:34;5.05;;;4.55;;
40601;SDS011;26310;50.278;19.032;2022-07-24T10:01:38;4.88;;;4.10;;
40601;SDS011;26310;50.278;19.032;2022-07-24T10:06:46;5.07;;;4.57;;
40601;SDS011;26310;50.278;19.032;2022-07-24T10:11:49;5.57;;;4.45;;
40601;SDS011;26310;50.278;19.032;2022-07-24T10:16:56;5.25;;;4.55;;
40601;SDS011;26310;50.278;19.032;2022-07-24T10:22:24;5.60;;;4.35;;
40601;SDS011;26310;50.278;19.032;2022-07-24T10:27:31;4.80;;;4.13;;
40601;SDS011;26310;50.278;19.032;2022-07-24T10:32:38;4.72;;;3.53;;
40601;SDS011;26310;50.278;19.032;2022-07-24T10:37:42;5.30;;;3.83;;
40601;SDS011;26310;50.278;19.032;2022-07-24T10:43:08;4.47;;;4.07;;
40601;SDS011;26310;50.278;19.032;2022-07-24T10:58:52;7.57;;;4.13;;
40601;SDS011;26310;50.278;19.032;2022-07-24T11:03:56;5.03;;;4.22;;
40601;SDS011;26310;50.278;19.032;2022-07-24T11:09:00;4.88;;;3.92;;
40601;SDS011;26310;50.278;19.032;2022-07-24T11:14:05;4.00;;;3.40;;
40601;SDS011;26310;50.278;19.032;2022-07-24T11:29:24;4.32;;;3.00;;
40601;SDS011;26310;50.278;19.032;2022-07-24T11:34:29;3.72;;;2.92;;
40601;SDS011;26310;50.278;19.032;2022-07-24T11:39:34;3.47;;;2.20;;
40601;SDS011;26310;50.278;19.032;2022-07-24T11:44:42;2.63;;;2.40;;
40601;SDS011;26310;50.278;19.032;2022-07-24T11:49:50;4.00;;;3.15;;
40601;SDS011;26310;50.278;19.032;2022-07-24T11:54:55;3.47;;;3.00;;
40601;SDS011;26310;50.278;19.032;2022-07-24T12:00:00;3.22;;;2.88;;
40601;SDS011;26310;50.278;19.032;2022-07-24T12:05:03;3.17;;;2.35;;
40601;SDS011;26310;50.278;19.032;2022-07-24T12:10:06;3.47;;;2.20;;
40601;SDS011;26310;50.278;19.032;2022-07-24T12:15:10;3.20;;;2.65;;
40601;SDS011;26310;50.278;19.032;2022-07-24T12:20:23;4.00;;;2.70;;
40601;SDS011;26310;50.278;19.032;2022-07-24T12:25:30;3.38;;;2.40;;
40601;SDS011;26310;50.278;19.032;2022-07-24T12:30:34;2.90;;;2.60;;
40601;SDS011;26310;50.278;19.032;2022-07-24T12:35:55;3.25;;;2.85;;
40601;SDS011;26310;50.278;19.032;2022-07-24T12:46:11;4.32;;;2.58;;
40601;SDS011;26310;50.278;19.032;2022-07-24T12:51:14;2.90;;;2.55;;
40601;SDS011;26310;50.278;19.032;2022-07-24T12:56:18;3.33;;;2.90;;
40601;SDS011;26310;50.278;19.032;2022-07-24T13:01:21;3.63;;;2.40;;
40601;SDS011;26310;50.278;19.032;2022-07-24T13:06:36;2.13;;;1.92;;
40601;SDS011;26310;50.278;19.032;2022-07-24T13:11:43;3.80;;;2.30;;
40601;SDS011;26310;50.278;19.032;2022-07-24T13:16:48;3.58;;;2.42;;
40601;SDS011;26310;50.278;19.032;2022-07-24T13:21:52;3.35;;;2.28;;
40601;SDS011;26310;50.278;19.032;2022-07-24T13:26:55;2.20;;;1.92;;
40601;SDS011;26310;50.278;19.032;2022-07-24T13:32:02;2.80;;;2.40;;
40601;SDS011;26310;50.278;19.032;2022-07-24T13:37:05;2.40;;;2.10;;
40601;SDS011;26310;50.278;19.032;2022-07-24T13:42:11;3.75;;;2.35;;
40601;SDS011;26310;50.278;19.032;2022-07-24T13:47:16;3.25;;;2.25;;
40601;SDS011;26310;50.278;19.032;2022-07-24T13:52:19;2.60;;;1.98;;
40601;SDS011;26310;50.278;19.032;2022-07-24T13:57:21;2.20;;;2.00;;
40601;SDS011;26310;50.278;19.032;2022-07-24T14:02:24;3.30;;;2.20;;
40601;SDS011;26310;50.278;19.032;2022-07-24T14:07:27;2.45;;;2.03;;
40601;SDS011;26310;50.278;19.032;2022-07-24T14:12:30;3.17;;;1.98;;
40601;SDS011;26310;50.278;19.032;2022-07-24T14:17:32;3.15;;;2.17;;
40601;SDS011;26310;50.278;19.032;2022-07-24T14:22:41;1.90;;;1.70;;
40601;SDS011;26310;50.278;19.032;2022-07-24T14:27:44;2.08;;;1.60;;
40601;SDS011;26310;50.278;19.032;2022-07-24T14:32:47;3.28;;;1.70;;
40601;SDS011;26310;50.278;19.032;2022-07-24T14:37:50;1.77;;;1.60;;
40601;SDS011;26310;50.278;19.032;2022-07-24T14:42:53;3.10;;;2.25;;
40601;SDS011;26310;50.278;19.032;2022-07-24T14:47:56;3.13;;;2.05;;
40601;SDS011;26310;50.278;19.032;2022-07-24T14:52:59;2.40;;;1.70;;
40601;SDS011;26310;50.278;19.032;2022-07-24T14:58:02;1.70;;;1.60;;
40601;SDS011;26310;50.278;19.032;2022-07-24T15:03:05;1.90;;;1.70;;
40601;SDS011;26310;50.278;19.032;2022-07-24T15:08:08;2.25;;;2.00;;
40601;SDS011;26310;50.278;19.032;2022-07-24T15:13:10;2.08;;;1.45;;
40601;SDS011;26310;50.278;19.032;2022-07-24T15:18:13;2.38;;;1.92;;
40601;SDS011;26310;50.278;19.032;2022-07-24T15:23:16;2.10;;;1.48;;
40601;SDS011;26310;50.278;19.032;2022-07-24T15:28:19;1.42;;;1.33;;
40601;SDS011;26310;50.278;19.032;2022-07-24T15:33:22;1.58;;;1.48;;
40601;SDS011;26310;50.278;19.032;2022-07-24T15:38:26;2.75;;;1.40;;
40601;SDS011;26310;50.278;19.032;2022-07-24T15:43:29;1.30;;;1.08;;
40601;SDS011;26310;50.278;19.032;2022-07-24T15:48:31;1.35;;;1.25;;
40601;SDS011;26310;50.278;19.032;2022-07-24T15:53:34;3.35;;;1.67;;
40601;SDS011;26310;50.278;19.032;2022-07-24T15:58:37;1.42;;;1.33;;
40601;SDS011;26310;50.278;19.032;2022-07-24T16:03:40;1.48;;;1.38;;
40601;SDS011;26310;50.278;19.032;2022-07-24T16:08:42;1.73;;;1.40;;
40601;SDS011;26310;50.278;19.032;2022-07-24T16:13:45;2.90;;;1.42;;
40601;SDS011;26310;50.278;19.032;2022-07-24T16:18:48;1.77;;;1.33;;
40601;SDS011;26310;50.278;19.032;2022-07-24T16:23:51;2.25;;;1.50;;
40601;SDS011;26310;50.278;19.032;2022-07-24T16:29:06;2.53;;;1.50;;
40601;SDS011;26310;50.278;19.032;2022-07-24T16:34:08;2.20;;;1.48;;
40601;SDS011;26310;50.278;19.032;2022-07-24T16:39:11;1.73;;;1.23;;
40601;SDS011;26310;50.278;19.032;2022-07-24T16:44:34;2.38;;;1.35;;
40601;SDS011;26310;50.278;19.032;2022-07-24T16:49:37;2.33;;;1.75;;
40601;SDS011;26310;50.278;19.032;2022-07-24T16:54:40;2.00;;;1.40;;
40601;SDS011;26310;50.278;19.032;2022-07-24T16:59:43;1.40;;;1.30;;
40601;SDS011;26310;50.278;19.032;2022-07-24T17:04:46;1.70;;;1.30;;
40601;SDS011;26310;50.278;19.032;2022-07-24T17:09:48;1.30;;;1.15;;
40601;SDS011;26310;50.278;19.032;2022-07-24T17:14:51;1.08;;;0.98;;
40601;SDS011;26310;50.278;19.032;2022-07-24T17:19:54;3.55;;;1.30;;
40601;SDS011;26310;50.278;19.032;2022-07-24T17:24:57;1.38;;;1.10;;
40601;SDS011;26310;50.278;19.032;2022-07-24T17:30:00;1.33;;;1.00;;
40601;SDS011;26310;50.278;19.032;2022-07-24T17:35:04;2.05;;;1.15;;
40601;SDS011;26310;50.278;19.032;2022-07-24T17:40:07;1.50;;;1.20;;
40601;SDS011;26310;50.278;19.032;2022-07-24T17:45:11;1.45;;;1.00;;
40601;SDS011;26310;50.278;19.032;2022-07-24T17:50:14;1.63;;;1.30;;
40601;SDS011;26310;50.278;19.032;2022-07-24T17:55:18;1.42;;;1.20;;
40601;SDS011;26310;50.278;19.032;2022-07-24T18:00:21;1.20;;;1.10;;
40601;SDS011;26310;50.278;19.032;2022-07-24T18:05:24;1.30;;;1.20;;
40601;SDS011;26310;50.278;19.032;2022-07-24T18:10:27;1.52;;;1.10;;
40601;SDS011;26310;50.278;19.032;2022-07-24T18:15:29;2.78;;;1.33;;
40601;SDS011;26310;50.278;19.032;2022-07-24T18:20:32;1.38;;;1.00;;
40601;SDS011;26310;50.278;19.032;2022-07-24T18:25:35;2.30;;;1.40;;
40601;SDS011;26310;50.278;19.032;2022-07-24T18:30:38;1.80;;;1.30;;
40601;SDS011;26310;50.278;19.032;2022-07-24T18:35:40;2.55;;;1.10;;
40601;SDS011;26310;50.278;19.032;2022-07-24T18:40:44;1.95;;;1.40;;
40601;SDS011;26310;50.278;19.032;2022-07-24T18:45:46;1.70;;;1.20;;
40601;SDS011;26310;50.278;19.032;2022-07-24T18:50:49;3.30;;;1.20;;
40601;SDS011;26310;50.278;19.032;2022-07-24T18:55:52;3.65;;;1.55;;
40601;SDS011;26310;50.278;19.032;2022-07-24T19:00:55;1.95;;;1.40;;
40601;SDS011;26310;50.278;19.032;2022-07-24T19:05:58;2.05;;;1.33;;
40601;SDS011;26310;50.278;19.032;2022-07-24T19:11:01;1.67;;;1.23;;
40601;SDS011;26310;50.278;19.032;2022-07-24T19:16:04;3.55;;;1.90;;
40601;SDS011;26310;50.278;19.032;2022-07-24T19:21:06;2.55;;;1.80;;
40601;SDS011;26310;50.278;19.032;2022-07-24T19:26:09;3.75;;;1.50;;
40601;SDS011;26310;50.278;19.032;2022-07-24T19:31:12;2.28;;;1.60;;
40601;SDS011;26310;50.278;19.032;2022-07-24T19:36:15;1.88;;;1.60;;
40601;SDS011;26310;50.278;19.032;2022-07-24T19:41:18;3.90;;;1.70;;
40601;SDS011;26310;50.278;19.032;2022-07-24T19:46:20;2.20;;;1.70;;
40601;SDS011;26310;50.278;19.032;2022-07-24T19:51:23;3.78;;;1.90;;
40601;SDS011;26310;50.278;19.032;2022-07-24T19:56:44;2.95;;;1.90;;
40601;SDS011;26310;50.278;19.032;2022-07-24T20:01:47;1.92;;;1.50;;
40601;SDS011;26310;50.278;19.032;2022-07-24T20:06:49;2.53;;;2.03;;
40601;SDS011;26310;50.278;19.032;2022-07-24T20:11:52;2.40;;;1.80;;
40601;SDS011;26310;50.278;19.032;2022-07-24T20:16:55;2.55;;;1.90;;
40601;SDS011;26310;50.278;19.032;2022-07-24T20:21:58;3.17;;;2.05;;
40601;SDS011;26310;50.278;19.032;2022-07-24T20:27:01;2.83;;;2.08;;
40601;SDS011;26310;50.278;19.032;2022-07-24T20:32:04;2.90;;;2.22;;
40601;SDS011;26310;50.278;19.032;2022-07-24T20:37:07;3.65;;;2.30;;
40601;SDS011;26310;50.278;19.032;2022-07-24T20:42:10;3.47;;;2.63;;
40601;SDS011;26310;50.278;19.032;2022-07-24T20:47:13;4.00;;;2.58;;
40601;SDS011;26310;50.278;19.032;2022-07-24T20:52:16;5.00;;;2.70;;
40601;SDS011;26310;50.278;19.032;2022-07-24T20:57:19;3.45;;;2.55;;
40601;SDS011;26310;50.278;19.032;2022-07-24T21:02:21;3.50;;;2.63;;
40601;SDS011;26310;50.278;19.032;2022-07-24T21:07:24;3.80;;;2.42;;
40601;SDS011;26310;50.278;19.032;2022-07-24T21:12:27;6.57;;;2.60;;
40601;SDS011;26310;50.278;19.032;2022-07-24T21:17:30;3.23;;;2.40;;
40601;SDS011;26310;50.278;19.032;2022-07-24T21:22:32;3.13;;;2.25;;
40601;SDS011;26310;50.278;19.032;2022-07-24T21:27:35;3.03;;;2.08;;
40601;SDS011;26310;50.278;19.032;2022-07-24T21:32:38;2.50;;;2.13;;
40601;SDS011;26310;50.278;19.032;2022-07-24T21:37:41;4.57;;;2.20;;
40601;SDS011;26310;50.278;19.032;2022-07-24T21:42:44;3.42;;;1.80;;
40601;SDS011;26310;50.278;19.032;2022-07-24T21:47:47;2.58;;;1.80;;
40601;SDS011;26310;50.278;19.032;2022-07-24T21:52:49;3.88;;;1.75;;
40601;SDS011;26310;50.278;19.032;2022-07-24T21:57:52;2.67;;;1.80;;
40601;SDS011;26310;50.278;19.032;2022-07-24T22:02:55;3.28;;;2.20;;
40601;SDS011;26310;50.278;19.032;2022-07-24T22:07:58;2.95;;;1.77;;
40601;SDS011;26310;50.278;19.032;2022-07-24T22:13:01;4.18;;;2.20;;
40601;SDS011;26310;50.278;19.032;2022-07-24T22:18:04;2.53;;;1.93;;
40601;SDS011;26310;50.278;19.032;2022-07-24T22:23:07;2.77;;;2.03;;
40601;SDS011;26310;50.278;19.032;2022-07-24T22:28:10;2.83;;;2.35;;
40601;SDS011;26310;50.278;19.032;2022-07-24T22:33:13;4.15;;;2.30;;
40601;SDS011;26310;50.278;19.032;2022-07-24T22:38:15;2.80;;;1.90;;
40601;SDS011;26310;50.278;19.032;2022-07-24T22:43:18;4.47;;;2.25;;
40601;SDS011;26310;50.278;19.032;2022-07-24T22:48:21;3.23;;;2.63;;
40601;SDS011;26310;50.278;19.032;2022-07-24T22:53:25;3.35;;;2.55;;
40601;SDS011;26310;50.278;19.032;2022-07-24T22:58:28;5.87;;;2.40;;
40601;SDS011;26310;50.278;19.032;2022-07-24T23:03:30;3.23;;;2.47;;
40601;SDS011;26310;50.278;19.032;2022-07-24T23:08:33;3.25;;;2.53;;
40601;SDS011;26310;50.278;19.032;2022-07-24T23:13:36;4.57;;;2.67;;
40601;SDS011;26310;50.278;19.032;2022-07-24T23:18:39;4.87;;;3.00;;
40601;SDS011;26310;50.278;19.032;2022-07-24T23:23:41;4.77;;;3.40;;
40601;SDS011;26310;50.278;19.032;2022-07-24T23:28:44;4.43;;;3.42;;
40601;SDS011;26310;50.278;19.032;2022-07-24T23:33:47;7.73;;;3.87;;
40601;SDS011;26310;50.278;19.032;2022-07-24T23:38:50;6.83;;;3.83;;
40601;SDS011;26310;50.278;19.032;2022-07-24T23:43:53;6.80;;;4.20;;
40601;SDS011;26310;50.278;19.032;2022-07-24T23:48:55;6.57;;;4.18;;
40601;SDS011;26310;50.278;19.032;2022-07-24T23:53:58;7.72;;;3.75;;
40601;SDS011;26310;50.278;19.032;2022-07-24T23:59:01;7.33;;;3.90;;
